createdAt,value
2019-05-12T00:01:58.817Z,8.30
2019-05-12T00:07:04.944Z,8.20
2019-05-12T00:12:11.188Z,8.20
2019-05-12T00:17:18.782Z,8.20
2019-05-12T00:22:28.648Z,8.20
2019-05-12T00:27:35.514Z,8.20
2019-05-12T00:32:42.121Z,8.20
2019-05-12T00:37:48.720Z,8.20
2019-05-12T00:42:57.759Z,8.20
2019-05-12T00:48:04.291Z,8.20
2019-05-12T00:53:10.656Z,8.20
2019-05-12T00:58:19.607Z,8.20
2019-05-12T01:03:27.995Z,8.20
2019-05-12T01:08:34.209Z,8.10
2019-05-12T01:13:39.896Z,8.10
2019-05-12T01:18:47.933Z,8.10
2019-05-12T01:24:00.477Z,8.00
2019-05-12T01:29:02.304Z,8.00
2019-05-12T01:34:08.218Z,7.90
2019-05-12T01:39:14.887Z,7.90
2019-05-12T01:44:21.407Z,7.90
2019-05-12T01:49:28.994Z,8.00
2019-05-12T01:54:35.136Z,8.00
2019-05-12T01:59:41.481Z,8.00
2019-05-12T02:05:08.593Z,8.00
2019-05-12T02:10:17.895Z,8.00
2019-05-12T02:15:23.167Z,8.00
2019-05-12T02:20:29.000Z,7.90
2019-05-12T02:25:37.851Z,7.90
2019-05-12T02:30:43.648Z,7.80
2019-05-12T02:35:49.063Z,7.80
2019-05-12T02:40:55.394Z,7.90
2019-05-12T02:46:04.868Z,7.80
2019-05-12T02:51:10.250Z,7.70
2019-05-12T02:56:17.647Z,7.70
2019-05-12T03:01:25.951Z,7.70
2019-05-12T03:06:35.826Z,7.60
2019-05-12T03:11:44.719Z,7.60
2019-05-12T03:16:50.481Z,7.60
2019-05-12T03:21:57.664Z,7.60
2019-05-12T03:27:04.483Z,7.60
2019-05-12T03:32:10.717Z,7.60
2019-05-12T03:37:18.375Z,7.60
2019-05-12T03:42:25.862Z,7.60
2019-05-12T03:47:34.730Z,7.60
2019-05-12T03:52:39.270Z,7.60
2019-05-12T03:57:45.249Z,7.60
2019-05-12T04:02:50.721Z,7.60
2019-05-12T04:07:56.394Z,7.60
2019-05-12T04:13:04.574Z,7.60
2019-05-12T04:18:08.990Z,7.60
2019-05-12T04:23:15.593Z,7.70
2019-05-12T04:28:24.212Z,7.70
2019-05-12T04:33:28.533Z,7.70
2019-05-12T04:38:35.528Z,7.70
2019-05-12T04:43:44.536Z,7.80
2019-05-12T04:48:48.627Z,7.80
2019-05-12T04:53:54.904Z,7.80
2019-05-12T04:59:04.715Z,7.80
2019-05-12T05:04:09.756Z,7.70
2019-05-12T05:09:16.258Z,7.70
2019-05-12T05:14:24.788Z,7.80
2019-05-12T05:19:30.730Z,7.80
2019-05-12T05:24:37.560Z,7.80
2019-05-12T05:29:44.525Z,7.80
2019-05-12T05:34:53.706Z,7.90
2019-05-12T05:39:58.187Z,7.90
2019-05-12T05:45:04.837Z,7.90
2019-05-12T05:50:10.616Z,7.90
2019-05-12T05:55:20.153Z,8.00
2019-05-12T06:00:26.308Z,8.00
2019-05-12T06:05:34.627Z,8.10
2019-05-12T06:10:40.699Z,8.20
2019-05-12T06:15:47.970Z,8.40
2019-05-12T06:20:54.156Z,8.50
2019-05-12T06:26:00.399Z,8.60
2019-05-12T06:31:06.185Z,8.50
2019-05-12T06:36:13.711Z,8.60
2019-05-12T06:41:20.990Z,8.80
2019-05-12T06:46:27.572Z,9.10
2019-05-12T06:51:34.409Z,9.10
2019-05-12T06:56:40.390Z,9.20
2019-05-12T07:01:49.834Z,9.50
2019-05-12T07:06:56.373Z,9.50
2019-05-12T07:12:06.267Z,9.50
2019-05-12T07:17:28.252Z,9.70
2019-05-12T07:22:43.754Z,9.60
2019-05-12T07:27:45.693Z,9.80
2019-05-12T07:32:51.100Z,10.00
2019-05-12T07:37:59.479Z,10.20
2019-05-12T07:43:09.775Z,10.50
2019-05-12T07:48:15.276Z,10.60
2019-05-12T07:53:23.884Z,11.10
2019-05-12T07:58:30.432Z,11.00
2019-05-12T08:03:37.336Z,11.30
2019-05-12T08:08:50.336Z,11.60
2019-05-12T08:13:54.234Z,11.40
2019-05-12T08:19:01.018Z,11.80
2019-05-12T08:24:07.980Z,12.20
2019-05-12T08:29:16.903Z,11.60
2019-05-12T08:34:20.944Z,11.00
2019-05-12T08:39:27.947Z,11.00
2019-05-12T08:44:40.613Z,11.30
2019-05-12T08:49:51.112Z,11.50
2019-05-12T08:54:53.796Z,11.70
2019-05-12T09:00:03.451Z,11.60
2019-05-12T09:05:10.895Z,11.40
2019-05-12T09:10:16.546Z,11.70
2019-05-12T09:15:23.950Z,12.70
2019-05-12T09:20:29.967Z,12.90
2019-05-12T09:25:39.485Z,12.50
2019-05-12T09:30:49.311Z,12.50
2019-05-12T09:35:54.085Z,12.20
2019-05-12T09:41:01.130Z,13.00
2019-05-12T09:46:07.165Z,13.50
2019-05-12T09:51:13.429Z,12.80
2019-05-12T09:56:20.686Z,13.00
2019-05-12T10:01:29.410Z,13.30
2019-05-12T10:06:35.619Z,13.50
2019-05-12T10:11:44.499Z,14.00
2019-05-12T10:16:49.921Z,15.00
2019-05-12T10:21:59.398Z,14.40
2019-05-12T10:27:04.459Z,13.60
2019-05-12T10:32:10.461Z,13.50
2019-05-12T10:37:19.380Z,14.10
2019-05-12T10:42:26.481Z,14.20
2019-05-12T10:47:34.326Z,14.20
2019-05-12T10:52:40.001Z,15.00
2019-05-12T10:57:47.216Z,13.30
2019-05-12T11:02:53.721Z,12.80
2019-05-12T11:08:05.156Z,13.00
2019-05-12T11:13:09.866Z,13.50
2019-05-12T11:18:20.598Z,14.40
2019-05-12T11:23:26.599Z,14.90
2019-05-12T11:28:33.759Z,14.20
2019-05-12T11:33:40.424Z,13.60
2019-05-12T11:38:47.008Z,13.60
2019-05-12T11:43:53.496Z,15.10
2019-05-12T11:49:00.334Z,15.70
2019-05-12T11:54:09.102Z,14.40
2019-05-12T11:59:15.341Z,14.20
2019-05-12T12:04:23.614Z,13.80
2019-05-12T12:09:30.697Z,14.40
2019-05-12T12:14:40.168Z,13.90
2019-05-12T12:19:47.022Z,12.30
2019-05-12T12:24:56.622Z,12.40
2019-05-12T12:30:15.770Z,12.70
2019-05-12T12:35:14.891Z,13.50
2019-05-12T12:40:19.211Z,13.50
2019-05-12T12:45:44.326Z,12.60
2019-05-12T12:50:53.329Z,11.80
2019-05-12T12:55:59.143Z,11.50
2019-05-12T13:01:05.676Z,11.20
2019-05-12T13:06:13.474Z,11.30
2019-05-12T13:11:32.109Z,11.40
2019-05-12T13:16:27.084Z,11.30
2019-05-12T13:21:33.790Z,11.10
2019-05-12T13:26:40.714Z,10.60
2019-05-12T13:31:48.547Z,10.40
2019-05-12T13:36:54.589Z,10.70
2019-05-12T13:42:03.216Z,11.10
2019-05-12T13:47:10.058Z,11.60
2019-05-12T13:52:20.364Z,10.90
2019-05-12T13:57:24.887Z,10.50
2019-05-12T14:02:33.616Z,10.40
2019-05-12T14:07:40.079Z,10.70
2019-05-12T14:12:46.590Z,11.10
2019-05-12T14:17:54.283Z,10.90
2019-05-12T14:23:01.045Z,10.90
2019-05-12T14:28:09.383Z,10.60
2019-05-12T14:33:17.968Z,10.50
2019-05-12T14:38:27.434Z,10.10
2019-05-12T14:43:29.645Z,10.10
2019-05-12T14:48:40.220Z,10.50
2019-05-12T14:54:25.142Z,10.80
2019-05-12T14:59:36.620Z,11.30
2019-05-12T15:04:40.781Z,11.20
2019-05-12T15:09:47.896Z,10.60
2019-05-12T15:14:55.243Z,10.70
2019-05-12T15:20:06.665Z,10.60
2019-05-12T15:25:11.442Z,10.30
2019-05-12T15:30:23.610Z,10.10
2019-05-12T15:35:24.959Z,10.40
2019-05-12T15:40:31.389Z,10.50
2019-05-12T15:45:37.046Z,10.80
2019-05-12T15:50:45.675Z,10.60
2019-05-12T15:55:50.251Z,10.40
2019-05-12T16:00:58.092Z,10.10
2019-05-12T16:06:10.069Z,10.00
2019-05-12T16:11:13.825Z,9.80
2019-05-12T16:16:18.781Z,9.90
2019-05-12T16:21:27.793Z,10.00
2019-05-12T16:26:33.943Z,10.30
2019-05-12T16:31:47.887Z,10.20
2019-05-12T16:36:52.064Z,10.00
2019-05-12T16:42:00.113Z,10.00
2019-05-12T16:47:07.107Z,10.10
2019-05-12T16:52:14.725Z,10.00
2019-05-12T16:57:21.986Z,9.90
2019-05-12T17:02:38.424Z,9.60
2019-05-12T17:07:35.754Z,9.40
2019-05-12T17:12:43.714Z,9.40
2019-05-12T17:17:50.667Z,9.30
2019-05-12T17:22:59.814Z,9.40
2019-05-12T17:28:05.774Z,9.30
2019-05-12T17:33:22.476Z,9.40
2019-05-12T17:38:25.343Z,9.30
2019-05-12T17:43:35.551Z,9.30
2019-05-12T17:48:42.906Z,9.40
2019-05-12T17:53:50.634Z,9.40
2019-05-12T17:58:57.429Z,9.40
2019-05-12T18:04:04.361Z,9.50
2019-05-12T18:09:15.880Z,9.60
2019-05-12T18:14:18.718Z,9.60
2019-05-12T18:19:24.361Z,9.50
2019-05-12T18:24:30.286Z,9.50
2019-05-12T18:29:36.504Z,9.40
2019-05-12T18:34:44.320Z,9.40
2019-05-12T18:39:50.474Z,9.30
2019-05-12T18:44:56.324Z,9.20
2019-05-12T18:50:04.444Z,9.20
2019-05-12T18:55:10.234Z,9.10
2019-05-12T19:00:20.080Z,9.00
2019-05-12T19:05:30.592Z,8.90
2019-05-12T19:10:38.580Z,8.60
2019-05-12T19:15:41.010Z,8.60
2019-05-12T19:20:48.179Z,8.60
2019-05-12T19:25:54.737Z,8.60
2019-05-12T19:31:06.154Z,8.60
2019-05-12T19:36:08.729Z,8.60
2019-05-12T19:41:14.285Z,8.50
2019-05-12T19:46:19.986Z,8.40
2019-05-12T19:51:28.315Z,8.40
2019-05-12T19:56:39.024Z,8.40
2019-05-12T20:01:44.552Z,8.30
2019-05-12T20:06:51.059Z,8.40
2019-05-12T20:12:01.258Z,8.30
2019-05-12T20:17:04.815Z,8.30
2019-05-12T20:22:11.127Z,8.30
2019-05-12T20:27:21.874Z,8.30
2019-05-12T20:32:25.903Z,8.30
2019-05-12T20:37:33.702Z,8.30
2019-05-12T20:42:44.291Z,8.30
2019-05-12T20:47:55.236Z,8.30
2019-05-12T20:53:00.744Z,8.20
2019-05-12T20:58:07.854Z,8.20
2019-05-12T21:03:14.414Z,8.20
2019-05-12T21:08:23.457Z,8.20
2019-05-12T21:13:31.915Z,8.10
2019-05-12T21:18:47.815Z,8.10
2019-05-12T21:23:53.934Z,8.00
2019-05-12T21:28:54.078Z,8.10
2019-05-12T21:33:59.765Z,8.10
2019-05-12T21:39:10.370Z,8.10
2019-05-12T21:44:17.051Z,8.00
2019-05-12T21:49:25.317Z,8.00
2019-05-12T21:54:36.102Z,8.00
2019-05-12T21:59:40.739Z,7.90
2019-05-12T22:04:46.327Z,7.90
2019-05-12T22:09:53.860Z,8.00
2019-05-12T22:14:59.879Z,8.00
2019-05-12T22:20:14.729Z,7.90
2019-05-12T22:25:15.774Z,7.90
2019-05-12T22:30:24.166Z,7.90
2019-05-12T22:35:29.760Z,7.80
2019-05-12T22:40:35.452Z,7.70
2019-05-12T22:45:47.092Z,7.80
2019-05-12T22:50:48.570Z,7.70
2019-05-12T22:55:54.316Z,7.70
2019-05-12T23:01:02.566Z,7.60
2019-05-12T23:06:20.502Z,7.60
2019-05-12T23:11:15.162Z,7.50
2019-05-12T23:16:25.820Z,7.50
2019-05-12T23:21:28.234Z,7.60
2019-05-12T23:26:41.740Z,7.60
2019-05-12T23:31:42.755Z,7.60
2019-05-12T23:36:50.383Z,7.50
2019-05-12T23:41:58.324Z,7.50
2019-05-12T23:47:04.453Z,7.40
2019-05-12T23:52:10.926Z,7.40
2019-05-12T23:57:17.541Z,7.40
